createdAt,value
2018-05-27T00:01:35.816Z,19.96
2018-05-27T00:04:04.400Z,19.77
2018-05-27T00:06:32.904Z,19.82
2018-05-27T00:09:01.431Z,19.66
2018-05-27T00:11:30.007Z,19.65
2018-05-27T00:13:58.540Z,19.58
2018-05-27T00:16:27.061Z,19.52
2018-05-27T00:18:55.553Z,19.49
2018-05-27T00:21:24.080Z,19.51
2018-05-27T00:23:52.572Z,19.39
2018-05-27T00:26:21.400Z,19.30
2018-05-27T00:28:49.912Z,19.32
2018-05-27T00:31:18.453Z,19.27
2018-05-27T00:33:46.940Z,19.28
2018-05-27T00:36:15.469Z,19.34
2018-05-27T00:38:44.008Z,19.27
2018-05-27T00:41:12.469Z,19.24
2018-05-27T00:43:40.997Z,19.25
2018-05-27T00:46:09.480Z,19.19
2018-05-27T00:48:38.001Z,19.18
2018-05-27T00:51:06.490Z,19.12
2018-05-27T00:53:46.632Z,19.11
2018-05-27T00:56:15.097Z,19.09
2018-05-27T00:58:43.625Z,18.99
2018-05-27T01:01:12.148Z,18.89
2018-05-27T01:03:40.690Z,18.85
2018-05-27T01:06:09.216Z,18.80
2018-05-27T01:08:37.756Z,18.79
2018-05-27T01:11:06.327Z,18.83
2018-05-27T01:13:34.884Z,18.85
2018-05-27T01:16:03.381Z,18.84
2018-05-27T01:18:31.935Z,18.82
2018-05-27T01:21:00.421Z,18.93
2018-05-27T01:23:29.011Z,18.98
2018-05-27T01:25:57.548Z,19.06
2018-05-27T01:28:26.084Z,19.10
2018-05-27T01:30:54.656Z,19.03
2018-05-27T01:33:23.172Z,19.07
2018-05-27T01:35:51.706Z,19.12
2018-05-27T01:38:20.237Z,19.08
2018-05-27T01:40:48.736Z,19.10
2018-05-27T01:43:17.249Z,19.12
2018-05-27T01:45:45.784Z,19.13
2018-05-27T01:48:14.288Z,19.11
2018-05-27T01:50:42.830Z,18.99
2018-05-27T01:53:11.381Z,18.97
2018-05-27T01:55:39.904Z,18.99
2018-05-27T01:58:08.446Z,19.05
2018-05-27T02:00:36.968Z,19.04
2018-05-27T02:03:05.501Z,19.13
2018-05-27T02:05:33.996Z,18.96
2018-05-27T02:08:02.529Z,19.08
2018-05-27T02:10:31.060Z,19.14
2018-05-27T02:12:59.568Z,19.14
2018-05-27T02:15:28.100Z,19.13
2018-05-27T02:17:56.584Z,19.07
2018-05-27T02:20:25.073Z,19.08
2018-05-27T02:22:53.626Z,19.16
2018-05-27T02:25:22.120Z,19.18
2018-05-27T02:27:50.737Z,19.20
2018-05-27T02:30:19.221Z,19.26
2018-05-27T02:32:47.716Z,19.26
2018-05-27T02:35:16.272Z,19.36
2018-05-27T02:37:44.756Z,19.40
2018-05-27T02:40:13.280Z,19.42
2018-05-27T02:42:41.792Z,19.46
2018-05-27T02:45:10.336Z,19.50
2018-05-27T02:47:38.825Z,19.53
2018-05-27T02:50:07.438Z,19.54
2018-05-27T02:52:35.976Z,19.54
2018-05-27T02:55:04.520Z,19.61
2018-05-27T02:57:33.021Z,19.59
2018-05-27T03:00:01.562Z,19.60
2018-05-27T03:02:30.069Z,19.63
2018-05-27T03:04:58.597Z,19.64
2018-05-27T03:07:27.124Z,19.64
2018-05-27T03:09:55.692Z,19.64
2018-05-27T03:12:24.189Z,19.64
2018-05-27T03:14:52.734Z,19.69
2018-05-27T03:17:21.281Z,19.55
2018-05-27T03:19:49.768Z,19.67
2018-05-27T03:22:18.256Z,19.64
2018-05-27T03:24:46.802Z,19.55
2018-05-27T03:27:15.307Z,19.64
2018-05-27T03:29:43.814Z,19.70
2018-05-27T03:32:12.322Z,19.72
2018-05-27T03:34:40.854Z,19.79
2018-05-27T03:37:09.348Z,19.82
2018-05-27T03:39:37.877Z,19.89
2018-05-27T03:42:06.413Z,19.93
2018-05-27T03:44:35.449Z,19.98
2018-05-27T03:47:04.033Z,20.05
2018-05-27T03:49:32.579Z,20.05
2018-05-27T03:52:01.053Z,20.09
2018-05-27T03:54:29.569Z,20.06
2018-05-27T03:56:58.076Z,20.09
2018-05-27T03:59:26.603Z,20.01
2018-05-27T04:01:55.113Z,20.03
2018-05-27T04:04:35.361Z,20.05
2018-05-27T04:10:06.726Z,20.26
2018-05-27T04:12:35.336Z,20.39
2018-05-27T04:15:03.857Z,20.45
2018-05-27T04:17:32.392Z,20.47
2018-05-27T04:20:00.893Z,20.52
2018-05-27T04:22:29.436Z,20.43
2018-05-27T04:24:57.910Z,20.42
2018-05-27T04:27:26.436Z,20.54
2018-05-27T04:29:54.936Z,20.51
2018-05-27T04:32:23.456Z,20.47
2018-05-27T04:34:51.984Z,20.53
2018-05-27T04:37:20.468Z,20.62
2018-05-27T04:39:49.009Z,20.62
2018-05-27T04:42:17.513Z,20.67
2018-05-27T04:44:46.004Z,20.89
2018-05-27T04:47:14.576Z,21.16
2018-05-27T04:49:43.104Z,21.43
2018-05-27T04:52:11.606Z,21.71
2018-05-27T04:54:40.152Z,21.91
2018-05-27T04:57:08.672Z,22.12
2018-05-27T04:59:37.157Z,22.30
2018-05-27T05:02:05.691Z,22.47
2018-05-27T05:04:34.228Z,22.70
2018-05-27T05:07:02.759Z,23.02
2018-05-27T05:09:31.265Z,23.23
2018-05-27T05:11:59.821Z,23.40
2018-05-27T05:14:28.308Z,23.61
2018-05-27T05:16:56.808Z,23.80
2018-05-27T05:19:25.315Z,24.00
2018-05-27T05:21:53.827Z,24.27
2018-05-27T05:24:22.406Z,24.59
2018-05-27T05:26:50.941Z,24.60
2018-05-27T05:29:19.472Z,24.79
2018-05-27T05:31:47.968Z,24.66
2018-05-27T05:34:16.508Z,24.65
2018-05-27T05:36:44.993Z,24.68
2018-05-27T05:39:13.480Z,24.74
2018-05-27T05:41:42.039Z,24.87
2018-05-27T05:44:10.529Z,24.94
2018-05-27T05:46:39.040Z,25.02
2018-05-27T05:49:07.517Z,24.98
2018-05-27T05:51:36.041Z,25.20
2018-05-27T05:54:04.537Z,25.43
2018-05-27T05:56:33.061Z,25.57
2018-05-27T05:59:01.528Z,25.55
2018-05-27T06:01:30.041Z,25.65
2018-05-27T06:03:58.528Z,25.89
2018-05-27T06:06:27.062Z,26.18
2018-05-27T06:08:55.599Z,26.22
2018-05-27T06:11:24.129Z,26.32
2018-05-27T06:13:52.611Z,26.55
2018-05-27T06:16:21.128Z,26.83
2018-05-27T06:18:49.653Z,26.91
2018-05-27T06:21:18.132Z,26.86
2018-05-27T06:23:46.657Z,26.98
2018-05-27T06:26:15.140Z,27.09
2018-05-27T06:28:43.625Z,26.92
2018-05-27T06:31:12.104Z,27.07
2018-05-27T06:33:40.634Z,27.40
2018-05-27T06:36:09.120Z,27.41
2018-05-27T06:38:37.689Z,27.25
2018-05-27T06:41:06.161Z,27.34
2018-05-27T06:43:34.669Z,27.43
2018-05-27T06:46:03.169Z,27.50
2018-05-27T06:48:31.649Z,27.70
2018-05-27T06:51:00.153Z,27.64
2018-05-27T06:53:28.628Z,27.61
2018-05-27T06:55:57.121Z,27.78
2018-05-27T06:58:25.577Z,27.87
2018-05-27T07:00:54.100Z,27.96
2018-05-27T07:03:22.551Z,28.33
2018-05-27T07:05:51.061Z,28.18
2018-05-27T07:08:19.572Z,28.31
2018-05-27T07:10:48.104Z,28.75
2018-05-27T07:13:16.608Z,28.88
2018-05-27T07:15:45.141Z,28.33
2018-05-27T07:18:13.625Z,28.56
2018-05-27T07:20:42.120Z,28.56
2018-05-27T07:23:10.626Z,28.55
2018-05-27T07:25:39.161Z,28.41
2018-05-27T07:28:07.659Z,28.52
2018-05-27T07:30:36.168Z,28.53
2018-05-27T07:33:04.667Z,28.83
2018-05-27T07:35:33.174Z,28.74
2018-05-27T07:38:01.670Z,28.86
2018-05-27T07:40:30.192Z,28.86
2018-05-27T07:42:58.681Z,29.10
2018-05-27T07:45:27.192Z,29.21
2018-05-27T07:47:55.673Z,29.06
2018-05-27T07:50:24.240Z,29.09
2018-05-27T07:52:52.760Z,29.07
2018-05-27T07:55:21.273Z,28.98
2018-05-27T07:57:49.789Z,29.21
2018-05-27T08:00:18.264Z,29.34
2018-05-27T08:02:46.756Z,29.46
2018-05-27T08:05:15.267Z,29.33
2018-05-27T08:07:43.788Z,29.22
2018-05-27T08:10:12.244Z,29.23
2018-05-27T08:12:40.772Z,29.28
2018-05-27T08:15:09.288Z,28.43
2018-05-27T08:17:37.769Z,28.79
2018-05-27T08:20:06.297Z,28.96
2018-05-27T08:22:34.777Z,29.19
2018-05-27T08:25:03.272Z,29.11
2018-05-27T08:27:31.794Z,29.29
2018-05-27T08:30:00.288Z,29.43
2018-05-27T08:32:28.745Z,28.98
2018-05-27T08:34:57.266Z,29.17
2018-05-27T08:37:25.744Z,29.06
2018-05-27T08:39:54.257Z,29.19
2018-05-27T08:42:22.732Z,29.31
2018-05-27T08:44:51.240Z,29.38
2018-05-27T08:47:19.744Z,29.10
2018-05-27T08:49:48.264Z,29.11
2018-05-27T08:52:16.760Z,29.21
2018-05-27T08:54:45.291Z,29.29
2018-05-27T08:57:13.762Z,29.40
2018-05-27T08:59:42.276Z,29.33
2018-05-27T09:02:10.725Z,29.54
2018-05-27T09:04:39.240Z,29.48
2018-05-27T09:07:07.718Z,29.74
2018-05-27T09:09:36.172Z,29.85
2018-05-27T09:12:04.672Z,29.99
2018-05-27T09:14:33.119Z,30.03
2018-05-27T09:17:01.634Z,30.05
2018-05-27T09:19:30.088Z,30.20
2018-05-27T09:21:58.579Z,29.47
2018-05-27T09:24:27.036Z,29.43
2018-05-27T09:26:55.519Z,29.09
2018-05-27T09:29:23.969Z,29.48
2018-05-27T09:31:52.456Z,29.48
2018-05-27T09:34:20.900Z,29.47
2018-05-27T09:36:49.400Z,29.58
2018-05-27T09:39:17.903Z,29.74
2018-05-27T09:41:46.388Z,29.95
2018-05-27T09:44:14.896Z,29.93
2018-05-27T09:46:43.413Z,30.04
2018-05-27T09:49:11.871Z,29.93
2018-05-27T09:51:40.373Z,30.06
2018-05-27T09:54:08.821Z,29.89
2018-05-27T09:56:37.273Z,29.93
2018-05-27T09:59:05.772Z,29.88
2018-05-27T10:01:34.232Z,29.85
2018-05-27T10:04:02.728Z,29.62
2018-05-27T10:06:31.240Z,29.64
2018-05-27T10:08:59.736Z,29.54
2018-05-27T10:11:28.232Z,29.62
2018-05-27T10:13:56.724Z,29.92
2018-05-27T10:16:25.208Z,29.83
2018-05-27T10:18:53.708Z,29.81
2018-05-27T10:21:22.159Z,29.73
2018-05-27T10:23:50.656Z,29.89
2018-05-27T10:26:19.109Z,29.68
2018-05-27T10:28:47.611Z,29.87
2018-05-27T10:31:16.096Z,29.82
2018-05-27T10:33:44.605Z,29.84
2018-05-27T10:36:13.084Z,30.01
2018-05-27T10:38:41.611Z,29.99
2018-05-27T10:41:10.104Z,29.82
2018-05-27T10:43:38.553Z,30.01
2018-05-27T10:46:07.043Z,30.13
2018-05-27T10:48:35.523Z,29.86
2018-05-27T10:51:03.981Z,29.82
2018-05-27T10:53:32.516Z,29.95
2018-05-27T10:56:00.992Z,30.01
2018-05-27T10:58:29.484Z,30.06
2018-05-27T11:00:57.940Z,30.30
2018-05-27T11:03:26.441Z,30.39
2018-05-27T11:05:54.977Z,30.49
2018-05-27T11:08:23.457Z,30.43
2018-05-27T11:10:51.918Z,29.96
2018-05-27T11:13:20.419Z,30.10
2018-05-27T11:15:49.069Z,30.18
2018-05-27T11:18:17.524Z,30.10
2018-05-27T11:20:46.083Z,30.23
2018-05-27T11:23:14.505Z,30.30
2018-05-27T11:25:42.996Z,30.34
2018-05-27T11:28:11.484Z,30.32
2018-05-27T11:30:39.992Z,30.36
2018-05-27T11:33:08.444Z,30.52
2018-05-27T11:35:36.939Z,30.63
2018-05-27T11:38:05.433Z,30.54
2018-05-27T11:40:33.888Z,30.59
2018-05-27T11:43:02.394Z,30.52
2018-05-27T11:45:30.920Z,30.36
2018-05-27T11:47:59.408Z,30.30
2018-05-27T11:50:27.933Z,30.22
2018-05-27T11:52:56.385Z,30.11
2018-05-27T11:55:24.860Z,30.26
2018-05-27T11:57:53.345Z,30.33
2018-05-27T12:00:21.796Z,30.41
2018-05-27T12:02:50.317Z,30.47
2018-05-27T12:05:18.768Z,30.64
2018-05-27T12:07:47.267Z,30.60
2018-05-27T12:10:15.716Z,30.71
2018-05-27T12:12:44.212Z,30.77
2018-05-27T12:15:12.665Z,30.86
2018-05-27T12:17:41.161Z,30.86
2018-05-27T12:20:09.697Z,31.01
2018-05-27T12:22:38.208Z,31.05
2018-05-27T12:25:06.729Z,31.14
2018-05-27T12:27:35.176Z,31.09
2018-05-27T12:30:03.739Z,31.14
2018-05-27T12:32:32.198Z,30.94
2018-05-27T12:35:00.720Z,30.75
2018-05-27T12:37:29.180Z,30.92
2018-05-27T12:39:57.662Z,30.79
2018-05-27T12:42:26.156Z,30.85
2018-05-27T12:44:54.668Z,30.79
2018-05-27T12:47:23.134Z,30.61
2018-05-27T12:49:51.646Z,30.70
2018-05-27T12:52:20.097Z,30.89
2018-05-27T12:54:48.555Z,30.68
2018-05-27T12:57:17.048Z,30.86
2018-05-27T12:59:45.503Z,30.86
2018-05-27T13:02:14.022Z,30.82
2018-05-27T13:04:42.529Z,30.88
2018-05-27T13:07:11.076Z,30.96
2018-05-27T13:09:39.564Z,30.91
2018-05-27T13:12:08.085Z,30.92
2018-05-27T13:14:36.569Z,31.07
2018-05-27T13:17:05.083Z,30.89
2018-05-27T13:19:33.684Z,30.99
2018-05-27T13:22:02.137Z,30.98
2018-05-27T13:24:30.680Z,30.92
2018-05-27T13:26:59.140Z,30.69
2018-05-27T13:29:27.651Z,30.81
2018-05-27T13:31:56.142Z,31.01
2018-05-27T13:34:24.652Z,30.99
2018-05-27T13:36:53.108Z,31.22
2018-05-27T13:39:21.599Z,31.28
2018-05-27T13:41:50.056Z,31.27
2018-05-27T13:44:18.541Z,31.28
2018-05-27T13:46:47.083Z,31.29
2018-05-27T13:49:15.584Z,30.74
2018-05-27T13:51:44.117Z,30.83
2018-05-27T13:54:12.620Z,31.01
2018-05-27T13:56:41.074Z,31.10
2018-05-27T13:59:09.532Z,31.06
2018-05-27T14:01:38.040Z,31.07
2018-05-27T14:04:06.562Z,31.13
2018-05-27T14:06:35.056Z,31.25
2018-05-27T14:09:03.710Z,31.26
2018-05-27T14:11:32.229Z,31.31
2018-05-27T14:14:00.721Z,31.36
2018-05-27T14:16:29.212Z,31.30
2018-05-27T14:18:57.724Z,31.31
2018-05-27T14:21:26.257Z,30.84
2018-05-27T14:23:54.716Z,30.79
2018-05-27T14:26:23.215Z,30.50
2018-05-27T14:28:51.724Z,30.28
2018-05-27T14:31:20.220Z,30.03
2018-05-27T14:33:48.712Z,29.34
2018-05-27T14:36:17.201Z,28.84
2018-05-27T14:38:45.777Z,28.42
2018-05-27T14:41:14.269Z,27.73
2018-05-27T14:43:42.774Z,27.16
2018-05-27T14:46:11.273Z,26.82
2018-05-27T14:48:39.779Z,26.76
2018-05-27T14:51:08.268Z,26.60
2018-05-27T14:53:36.740Z,26.39
2018-05-27T14:56:05.282Z,25.80
2018-05-27T14:58:33.782Z,25.69
2018-05-27T15:01:02.233Z,25.70
2018-05-27T15:03:30.724Z,25.43
2018-05-27T15:05:59.183Z,25.56
2018-05-27T15:08:27.673Z,25.62
2018-05-27T15:10:56.151Z,25.45
2018-05-27T15:13:24.647Z,25.27
2018-05-27T15:15:53.165Z,25.27
2018-05-27T15:18:21.658Z,25.46
2018-05-27T15:20:50.172Z,25.59
2018-05-27T15:23:18.629Z,25.60
2018-05-27T15:25:47.125Z,25.85
2018-05-27T15:28:15.600Z,26.07
2018-05-27T15:30:44.097Z,26.19
2018-05-27T15:33:12.581Z,26.38
2018-05-27T15:35:41.136Z,26.45
2018-05-27T15:38:09.599Z,26.47
2018-05-27T15:40:38.089Z,26.53
2018-05-27T15:43:06.544Z,26.59
2018-05-27T15:45:35.092Z,26.63
2018-05-27T15:48:03.556Z,26.69
2018-05-27T15:50:32.040Z,26.69
2018-05-27T15:53:00.577Z,26.72
2018-05-27T15:55:29.070Z,26.79
2018-05-27T15:57:57.555Z,26.77
2018-05-27T16:00:26.052Z,26.66
2018-05-27T16:02:54.549Z,26.57
2018-05-27T16:05:23.064Z,26.66
2018-05-27T16:07:51.509Z,26.66
2018-05-27T16:10:20.036Z,26.63
2018-05-27T16:12:48.524Z,26.60
2018-05-27T16:15:17.028Z,26.57
2018-05-27T16:17:45.516Z,26.56
2018-05-27T16:20:14.029Z,26.44
2018-05-27T16:22:42.508Z,26.46
2018-05-27T16:25:11.029Z,26.43
2018-05-27T16:27:39.521Z,26.39
2018-05-27T16:30:08.015Z,26.31
2018-05-27T16:32:36.504Z,26.23
2018-05-27T16:35:05.016Z,26.22
2018-05-27T16:37:33.511Z,26.12
2018-05-27T16:40:01.973Z,26.19
2018-05-27T16:42:30.489Z,26.16
2018-05-27T16:44:58.945Z,26.10
2018-05-27T16:47:27.478Z,26.04
2018-05-27T16:49:56.004Z,26.00
2018-05-27T16:52:24.456Z,25.97
2018-05-27T16:54:52.916Z,25.86
2018-05-27T16:57:21.477Z,25.90
2018-05-27T16:59:49.931Z,25.87
2018-05-27T17:02:18.429Z,25.81
2018-05-27T17:04:46.894Z,25.75
2018-05-27T17:07:15.408Z,25.74
2018-05-27T17:09:43.913Z,25.57
2018-05-27T17:12:12.397Z,25.45
2018-05-27T17:14:40.860Z,25.42
2018-05-27T17:17:09.349Z,25.37
2018-05-27T17:19:37.817Z,25.26
2018-05-27T17:22:06.322Z,25.12
2018-05-27T17:24:34.836Z,24.94
2018-05-27T17:27:03.355Z,25.00
2018-05-27T17:29:31.808Z,24.96
2018-05-27T17:32:00.284Z,24.87
2018-05-27T17:34:28.821Z,24.86
2018-05-27T17:36:57.368Z,24.71
2018-05-27T17:39:25.840Z,24.69
2018-05-27T17:41:54.324Z,24.69
2018-05-27T17:44:22.921Z,24.64
2018-05-27T17:46:51.413Z,24.58
2018-05-27T17:49:19.903Z,24.52
2018-05-27T17:51:48.368Z,24.47
2018-05-27T17:54:16.928Z,24.44
2018-05-27T17:56:45.408Z,24.40
2018-05-27T17:59:13.860Z,24.35
2018-05-27T18:01:42.364Z,24.33
2018-05-27T18:04:10.860Z,24.33
2018-05-27T18:06:39.420Z,24.11
2018-05-27T18:09:07.904Z,24.22
2018-05-27T18:11:36.436Z,24.15
2018-05-27T18:14:04.972Z,24.12
2018-05-27T18:16:33.424Z,24.15
2018-05-27T18:19:01.936Z,24.13
2018-05-27T18:21:30.390Z,24.10
2018-05-27T18:23:58.884Z,24.06
2018-05-27T18:26:27.349Z,24.07
2018-05-27T18:28:55.870Z,24.02
2018-05-27T18:31:24.325Z,24.09
2018-05-27T18:33:52.812Z,23.98
2018-05-27T18:36:21.265Z,23.99
2018-05-27T18:38:49.838Z,23.99
2018-05-27T18:41:18.302Z,23.96
2018-05-27T18:43:46.801Z,23.93
2018-05-27T18:46:15.324Z,23.91
2018-05-27T18:48:43.824Z,23.82
2018-05-27T18:51:12.308Z,23.84
2018-05-27T18:53:40.796Z,23.79
2018-05-27T18:56:09.261Z,23.76
2018-05-27T18:58:37.712Z,23.71
2018-05-27T19:01:06.250Z,23.72
2018-05-27T19:03:34.769Z,23.73
2018-05-27T19:06:03.220Z,23.70
2018-05-27T19:08:31.673Z,23.68
2018-05-27T19:11:00.124Z,23.66
2018-05-27T19:13:28.638Z,23.67
2018-05-27T19:15:57.164Z,23.48
2018-05-27T19:18:25.665Z,23.57
2018-05-27T19:20:54.173Z,23.50
2018-05-27T19:23:22.657Z,23.50
2018-05-27T19:25:51.115Z,23.27
2018-05-27T19:28:19.619Z,23.35
2018-05-27T19:30:48.073Z,23.27
2018-05-27T19:33:16.536Z,23.32
2018-05-27T19:35:45.028Z,23.25
2018-05-27T19:38:13.484Z,23.16
2018-05-27T19:40:41.982Z,23.13
2018-05-27T19:43:10.480Z,23.11
2018-05-27T19:45:38.945Z,23.08
2018-05-27T19:48:07.408Z,23.02
2018-05-27T19:50:35.892Z,22.94
2018-05-27T19:53:04.441Z,22.94
2018-05-27T19:55:32.896Z,22.79
2018-05-27T19:58:01.394Z,22.81
2018-05-27T20:00:29.859Z,22.76
2018-05-27T20:02:58.347Z,22.78
2018-05-27T20:05:26.849Z,22.74
2018-05-27T20:07:55.349Z,22.67
2018-05-27T20:10:23.818Z,22.68
2018-05-27T20:12:52.331Z,22.65
2018-05-27T20:15:20.796Z,22.60
2018-05-27T20:17:49.297Z,22.56
2018-05-27T20:20:17.806Z,22.50
2018-05-27T20:22:46.273Z,22.51
2018-05-27T20:25:14.784Z,22.44
2018-05-27T20:27:43.244Z,22.45
2018-05-27T20:30:11.759Z,22.42
2018-05-27T20:32:40.217Z,22.36
2018-05-27T20:35:08.745Z,22.27
2018-05-27T20:37:37.208Z,22.22
2018-05-27T20:40:05.715Z,22.18
2018-05-27T20:42:34.213Z,22.10
2018-05-27T20:45:02.751Z,22.16
2018-05-27T20:47:31.228Z,22.18
2018-05-27T20:49:59.785Z,22.20
2018-05-27T20:52:28.252Z,22.11
2018-05-27T20:54:56.757Z,22.20
2018-05-27T20:57:25.271Z,22.18
2018-05-27T20:59:53.756Z,22.19
2018-05-27T21:02:22.213Z,22.19
2018-05-27T21:04:50.708Z,22.19
2018-05-27T21:07:19.164Z,22.17
2018-05-27T21:09:47.705Z,22.11
2018-05-27T21:12:16.209Z,22.16
2018-05-27T21:14:44.721Z,22.16
2018-05-27T21:17:13.208Z,22.17
2018-05-27T21:19:41.664Z,22.20
2018-05-27T21:22:10.153Z,22.22
2018-05-27T21:24:38.608Z,22.12
2018-05-27T21:27:07.112Z,22.16
2018-05-27T21:29:35.575Z,22.19
2018-05-27T21:32:04.084Z,22.21
2018-05-27T21:34:32.577Z,22.20
2018-05-27T21:37:01.038Z,22.19
2018-05-27T21:39:29.540Z,22.15
2018-05-27T21:41:57.997Z,22.18
2018-05-27T21:44:26.496Z,22.10
2018-05-27T21:46:54.961Z,22.06
2018-05-27T21:49:23.456Z,22.05
2018-05-27T21:51:51.918Z,22.09
2018-05-27T21:54:20.433Z,22.08
2018-05-27T21:56:48.906Z,22.10
2018-05-27T21:59:17.412Z,22.14
2018-05-27T22:01:45.901Z,22.14
2018-05-27T22:04:14.394Z,22.14
2018-05-27T22:06:42.896Z,22.16
2018-05-27T22:09:11.364Z,22.20
2018-05-27T22:11:39.872Z,22.18
2018-05-27T22:14:08.380Z,22.27
2018-05-27T22:16:36.870Z,22.27
2018-05-27T22:19:05.342Z,22.29
2018-05-27T22:21:33.844Z,22.27
2018-05-27T22:24:02.305Z,22.31
2018-05-27T22:26:30.810Z,22.34
2018-05-27T22:28:59.299Z,22.38
2018-05-27T22:31:27.752Z,22.40
2018-05-27T22:33:56.245Z,22.45
2018-05-27T22:36:24.770Z,22.43
2018-05-27T22:38:53.229Z,22.31
2018-05-27T22:41:21.728Z,22.42
2018-05-27T22:43:50.179Z,22.43
2018-05-27T22:46:18.672Z,22.46
2018-05-27T22:48:47.169Z,22.44
2018-05-27T22:51:15.630Z,22.40
2018-05-27T22:53:44.120Z,22.42
2018-05-27T22:56:12.617Z,22.41
2018-05-27T22:58:41.114Z,22.40
2018-05-27T23:01:09.632Z,22.34
2018-05-27T23:03:38.183Z,22.32
2018-05-27T23:06:06.730Z,22.32
2018-05-27T23:08:35.270Z,22.32
2018-05-27T23:11:03.778Z,22.29
2018-05-27T23:13:32.344Z,22.31
2018-05-27T23:16:00.837Z,22.27
2018-05-27T23:18:29.349Z,22.25
2018-05-27T23:20:57.865Z,22.17
2018-05-27T23:23:26.384Z,22.08
2018-05-27T23:25:54.904Z,22.17
2018-05-27T23:28:23.375Z,22.26
2018-05-27T23:30:51.894Z,22.21
2018-05-27T23:33:20.370Z,22.34
2018-05-27T23:35:48.912Z,22.33
2018-05-27T23:38:17.369Z,22.35
2018-05-27T23:40:45.857Z,22.31
2018-05-27T23:43:14.377Z,22.36
2018-05-27T23:45:42.849Z,22.23
2018-05-27T23:48:11.361Z,22.29
2018-05-27T23:50:39.889Z,22.29
2018-05-27T23:53:08.372Z,22.28
2018-05-27T23:55:36.876Z,22.14
2018-05-27T23:58:05.408Z,22.04
